sensor_id;sensor_type;location;lat;lon;timestamp;P1;durP1;ratioP1;P2;durP2;ratioP2
17510;SDS011;8873;48.818;9.422;2022-12-18T00:02:27;69.33;;;25.73;;
17510;SDS011;8873;48.818;9.422;2022-12-18T00:04:55;74.97;;;25.10;;
17510;SDS011;8873;48.818;9.422;2022-12-18T00:07:26;78.17;;;26.07;;
17510;SDS011;8873;48.818;9.422;2022-12-18T00:09:54;78.73;;;26.37;;
17510;SDS011;8873;48.818;9.422;2022-12-18T00:12:22;89.93;;;26.27;;
17510;SDS011;8873;48.818;9.422;2022-12-18T00:14:49;81.43;;;25.97;;
17510;SDS011;8873;48.818;9.422;2022-12-18T00:17:17;79.73;;;27.70;;
17510;SDS011;8873;48.818;9.422;2022-12-18T00:19:44;75.40;;;23.97;;
17510;SDS011;8873;48.818;9.422;2022-12-18T00:22:12;78.13;;;27.20;;
17510;SDS011;8873;48.818;9.422;2022-12-18T00:24:41;79.63;;;25.87;;
17510;SDS011;8873;48.818;9.422;2022-12-18T00:27:09;75.00;;;26.37;;
17510;SDS011;8873;48.818;9.422;2022-12-18T00:29:36;79.90;;;24.23;;
17510;SDS011;8873;48.818;9.422;2022-12-18T00:32:17;77.50;;;25.63;;
17510;SDS011;8873;48.818;9.422;2022-12-18T00:34:45;79.33;;;25.77;;
17510;SDS011;8873;48.818;9.422;2022-12-18T00:37:12;73.33;;;25.07;;
17510;SDS011;8873;48.818;9.422;2022-12-18T00:39:46;90.30;;;26.83;;
17510;SDS011;8873;48.818;9.422;2022-12-18T00:42:15;81.33;;;26.80;;
17510;SDS011;8873;48.818;9.422;2022-12-18T00:45:00;77.13;;;24.70;;
17510;SDS011;8873;48.818;9.422;2022-12-18T00:47:32;71.80;;;22.90;;
17510;SDS011;8873;48.818;9.422;2022-12-18T00:50:00;86.23;;;25.23;;
17510;SDS011;8873;48.818;9.422;2022-12-18T00:52:28;75.77;;;24.73;;
17510;SDS011;8873;48.818;9.422;2022-12-18T00:54:56;82.23;;;27.10;;
17510;SDS011;8873;48.818;9.422;2022-12-18T00:57:31;74.63;;;24.93;;
17510;SDS011;8873;48.818;9.422;2022-12-18T00:59:58;87.00;;;24.57;;
17510;SDS011;8873;48.818;9.422;2022-12-18T01:02:26;65.00;;;22.67;;
17510;SDS011;8873;48.818;9.422;2022-12-18T01:04:54;74.13;;;24.93;;
17510;SDS011;8873;48.818;9.422;2022-12-18T01:07:21;71.90;;;24.47;;
17510;SDS011;8873;48.818;9.422;2022-12-18T01:09:49;61.67;;;22.60;;
17510;SDS011;8873;48.818;9.422;2022-12-18T01:12:18;61.17;;;22.60;;
17510;SDS011;8873;48.818;9.422;2022-12-18T01:14:46;55.90;;;20.97;;
17510;SDS011;8873;48.818;9.422;2022-12-18T01:17:13;75.37;;;23.50;;
17510;SDS011;8873;48.818;9.422;2022-12-18T01:19:41;68.00;;;23.23;;
17510;SDS011;8873;48.818;9.422;2022-12-18T01:22:08;77.73;;;24.70;;
17510;SDS011;8873;48.818;9.422;2022-12-18T01:24:36;70.37;;;23.40;;
17510;SDS011;8873;48.818;9.422;2022-12-18T01:27:03;69.60;;;23.83;;
17510;SDS011;8873;48.818;9.422;2022-12-18T01:29:32;57.50;;;22.60;;
17510;SDS011;8873;48.818;9.422;2022-12-18T01:32:00;63.13;;;22.47;;
17510;SDS011;8873;48.818;9.422;2022-12-18T01:34:27;63.63;;;22.17;;
17510;SDS011;8873;48.818;9.422;2022-12-18T01:36:55;67.17;;;22.07;;
17510;SDS011;8873;48.818;9.422;2022-12-18T01:39:22;66.10;;;22.87;;
17510;SDS011;8873;48.818;9.422;2022-12-18T01:41:50;68.63;;;22.67;;
17510;SDS011;8873;48.818;9.422;2022-12-18T01:47:33;65.40;;;21.83;;
17510;SDS011;8873;48.818;9.422;2022-12-18T01:50:03;71.40;;;23.50;;
17510;SDS011;8873;48.818;9.422;2022-12-18T01:52:32;73.23;;;22.40;;
17510;SDS011;8873;48.818;9.422;2022-12-18T01:55:00;64.63;;;22.30;;
17510;SDS011;8873;48.818;9.422;2022-12-18T01:57:29;78.07;;;22.00;;
17510;SDS011;8873;48.818;9.422;2022-12-18T01:59:59;68.83;;;23.60;;
17510;SDS011;8873;48.818;9.422;2022-12-18T02:02:28;66.20;;;20.83;;
17510;SDS011;8873;48.818;9.422;2022-12-18T02:04:59;72.10;;;23.23;;
17510;SDS011;8873;48.818;9.422;2022-12-18T02:07:29;70.87;;;22.27;;
17510;SDS011;8873;48.818;9.422;2022-12-18T02:10:00;64.87;;;22.70;;
17510;SDS011;8873;48.818;9.422;2022-12-18T02:12:31;68.57;;;22.87;;
17510;SDS011;8873;48.818;9.422;2022-12-18T02:15:03;78.70;;;24.07;;
17510;SDS011;8873;48.818;9.422;2022-12-18T02:17:34;68.77;;;21.80;;
17510;SDS011;8873;48.818;9.422;2022-12-18T02:20:07;67.53;;;22.67;;
17510;SDS011;8873;48.818;9.422;2022-12-18T02:22:37;65.20;;;22.63;;
17510;SDS011;8873;48.818;9.422;2022-12-18T02:25:15;70.77;;;21.10;;
17510;SDS011;8873;48.818;9.422;2022-12-18T02:27:47;67.67;;;21.23;;
17510;SDS011;8873;48.818;9.422;2022-12-18T02:30:16;65.10;;;22.53;;
17510;SDS011;8873;48.818;9.422;2022-12-18T02:32:46;62.67;;;21.13;;
17510;SDS011;8873;48.818;9.422;2022-12-18T02:35:15;76.23;;;21.37;;
17510;SDS011;8873;48.818;9.422;2022-12-18T02:37:43;64.67;;;20.63;;
17510;SDS011;8873;48.818;9.422;2022-12-18T02:40:12;65.13;;;21.07;;
17510;SDS011;8873;48.818;9.422;2022-12-18T02:42:41;69.87;;;21.03;;
17510;SDS011;8873;48.818;9.422;2022-12-18T02:45:10;60.90;;;20.73;;
17510;SDS011;8873;48.818;9.422;2022-12-18T02:47:39;64.03;;;21.03;;
17510;SDS011;8873;48.818;9.422;2022-12-18T02:50:09;61.67;;;21.90;;
17510;SDS011;8873;48.818;9.422;2022-12-18T02:52:42;72.30;;;22.30;;
17510;SDS011;8873;48.818;9.422;2022-12-18T02:55:15;60.47;;;20.73;;
17510;SDS011;8873;48.818;9.422;2022-12-18T02:57:47;63.83;;;21.20;;
17510;SDS011;8873;48.818;9.422;2022-12-18T03:00:18;60.50;;;18.90;;
17510;SDS011;8873;48.818;9.422;2022-12-18T03:02:47;64.77;;;20.30;;
17510;SDS011;8873;48.818;9.422;2022-12-18T03:05:17;65.43;;;20.50;;
17510;SDS011;8873;48.818;9.422;2022-12-18T03:07:47;63.77;;;21.63;;
17510;SDS011;8873;48.818;9.422;2022-12-18T03:10:16;66.60;;;21.57;;
17510;SDS011;8873;48.818;9.422;2022-12-18T03:12:47;65.73;;;20.43;;
17510;SDS011;8873;48.818;9.422;2022-12-18T03:15:20;62.77;;;21.33;;
17510;SDS011;8873;48.818;9.422;2022-12-18T03:17:50;62.67;;;20.23;;
17510;SDS011;8873;48.818;9.422;2022-12-18T03:20:21;51.73;;;20.43;;
17510;SDS011;8873;48.818;9.422;2022-12-18T03:22:50;55.40;;;19.23;;
17510;SDS011;8873;48.818;9.422;2022-12-18T03:25:19;64.83;;;19.77;;
17510;SDS011;8873;48.818;9.422;2022-12-18T03:27:48;43.47;;;17.97;;
17510;SDS011;8873;48.818;9.422;2022-12-18T03:30:18;61.67;;;20.53;;
17510;SDS011;8873;48.818;9.422;2022-12-18T03:32:47;59.07;;;19.10;;
17510;SDS011;8873;48.818;9.422;2022-12-18T03:35:16;66.73;;;20.23;;
17510;SDS011;8873;48.818;9.422;2022-12-18T03:37:46;55.57;;;18.40;;
17510;SDS011;8873;48.818;9.422;2022-12-18T03:40:13;59.23;;;19.07;;
17510;SDS011;8873;48.818;9.422;2022-12-18T03:42:43;53.10;;;18.70;;
17510;SDS011;8873;48.818;9.422;2022-12-18T03:45:13;61.23;;;20.03;;
17510;SDS011;8873;48.818;9.422;2022-12-18T03:47:47;54.20;;;18.50;;
17510;SDS011;8873;48.818;9.422;2022-12-18T03:50:19;54.23;;;18.57;;
17510;SDS011;8873;48.818;9.422;2022-12-18T03:52:49;58.47;;;18.23;;
17510;SDS011;8873;48.818;9.422;2022-12-18T03:55:18;58.63;;;19.20;;
17510;SDS011;8873;48.818;9.422;2022-12-18T03:57:47;51.77;;;18.17;;
17510;SDS011;8873;48.818;9.422;2022-12-18T04:00:16;54.80;;;18.13;;
17510;SDS011;8873;48.818;9.422;2022-12-18T04:02:47;55.23;;;17.83;;
17510;SDS011;8873;48.818;9.422;2022-12-18T04:05:16;61.80;;;19.67;;
17510;SDS011;8873;48.818;9.422;2022-12-18T04:07:45;55.97;;;19.17;;
17510;SDS011;8873;48.818;9.422;2022-12-18T04:10:13;67.63;;;19.73;;
17510;SDS011;8873;48.818;9.422;2022-12-18T04:12:42;57.07;;;19.10;;
17510;SDS011;8873;48.818;9.422;2022-12-18T04:15:10;68.23;;;19.60;;
17510;SDS011;8873;48.818;9.422;2022-12-18T04:17:38;52.20;;;18.40;;
17510;SDS011;8873;48.818;9.422;2022-12-18T04:20:08;58.67;;;18.57;;
17510;SDS011;8873;48.818;9.422;2022-12-18T04:22:35;52.13;;;17.37;;
17510;SDS011;8873;48.818;9.422;2022-12-18T04:25:03;51.97;;;17.40;;
17510;SDS011;8873;48.818;9.422;2022-12-18T04:27:31;58.33;;;18.40;;
17510;SDS011;8873;48.818;9.422;2022-12-18T04:29:59;51.03;;;17.57;;
17510;SDS011;8873;48.818;9.422;2022-12-18T04:32:27;56.37;;;17.90;;
17510;SDS011;8873;48.818;9.422;2022-12-18T04:34:54;51.77;;;17.03;;
17510;SDS011;8873;48.818;9.422;2022-12-18T04:37:23;56.27;;;18.13;;
17510;SDS011;8873;48.818;9.422;2022-12-18T04:39:51;54.13;;;18.60;;
17510;SDS011;8873;48.818;9.422;2022-12-18T04:42:18;57.13;;;18.97;;
17510;SDS011;8873;48.818;9.422;2022-12-18T04:44:46;54.80;;;18.17;;
17510;SDS011;8873;48.818;9.422;2022-12-18T04:47:13;50.13;;;17.43;;
17510;SDS011;8873;48.818;9.422;2022-12-18T04:49:41;51.37;;;17.53;;
17510;SDS011;8873;48.818;9.422;2022-12-18T04:52:08;55.23;;;18.93;;
17510;SDS011;8873;48.818;9.422;2022-12-18T04:54:37;56.37;;;18.50;;
17510;SDS011;8873;48.818;9.422;2022-12-18T04:57:05;47.87;;;16.57;;
17510;SDS011;8873;48.818;9.422;2022-12-18T04:59:32;48.70;;;16.40;;
17510;SDS011;8873;48.818;9.422;2022-12-18T05:02:00;54.23;;;17.33;;
17510;SDS011;8873;48.818;9.422;2022-12-18T05:04:28;55.73;;;18.00;;
17510;SDS011;8873;48.818;9.422;2022-12-18T05:06:55;48.00;;;17.50;;
17510;SDS011;8873;48.818;9.422;2022-12-18T05:09:23;62.60;;;17.77;;
17510;SDS011;8873;48.818;9.422;2022-12-18T05:11:52;55.37;;;17.90;;
17510;SDS011;8873;48.818;9.422;2022-12-18T05:14:20;50.80;;;17.63;;
17510;SDS011;8873;48.818;9.422;2022-12-18T05:16:47;48.60;;;16.67;;
17510;SDS011;8873;48.818;9.422;2022-12-18T05:19:15;45.87;;;17.17;;
17510;SDS011;8873;48.818;9.422;2022-12-18T05:21:42;49.47;;;16.90;;
17510;SDS011;8873;48.818;9.422;2022-12-18T05:24:11;56.30;;;16.53;;
17510;SDS011;8873;48.818;9.422;2022-12-18T05:26:52;49.73;;;16.97;;
17510;SDS011;8873;48.818;9.422;2022-12-18T05:29:23;50.23;;;16.87;;
17510;SDS011;8873;48.818;9.422;2022-12-18T05:31:53;45.80;;;17.03;;
17510;SDS011;8873;48.818;9.422;2022-12-18T05:34:25;50.25;;;17.10;;
17510;SDS011;8873;48.818;9.422;2022-12-18T05:36:58;52.00;;;16.27;;
17510;SDS011;8873;48.818;9.422;2022-12-18T05:39:27;51.03;;;16.77;;
17510;SDS011;8873;48.818;9.422;2022-12-18T05:42:01;49.83;;;16.73;;
17510;SDS011;8873;48.818;9.422;2022-12-18T05:44:30;53.43;;;16.97;;
17510;SDS011;8873;48.818;9.422;2022-12-18T05:47:03;57.30;;;16.70;;
17510;SDS011;8873;48.818;9.422;2022-12-18T05:49:32;55.00;;;17.07;;
17510;SDS011;8873;48.818;9.422;2022-12-18T05:52:08;54.40;;;18.73;;
17510;SDS011;8873;48.818;9.422;2022-12-18T05:54:44;50.90;;;16.80;;
17510;SDS011;8873;48.818;9.422;2022-12-18T05:57:22;60.07;;;16.90;;
17510;SDS011;8873;48.818;9.422;2022-12-18T05:59:54;56.57;;;16.67;;
17510;SDS011;8873;48.818;9.422;2022-12-18T06:02:27;49.77;;;16.73;;
17510;SDS011;8873;48.818;9.422;2022-12-18T06:04:55;45.63;;;16.10;;
17510;SDS011;8873;48.818;9.422;2022-12-18T06:07:27;43.13;;;14.33;;
17510;SDS011;8873;48.818;9.422;2022-12-18T06:09:58;47.83;;;16.07;;
17510;SDS011;8873;48.818;9.422;2022-12-18T06:12:32;56.03;;;17.10;;
17510;SDS011;8873;48.818;9.422;2022-12-18T06:15:03;45.07;;;16.20;;
17510;SDS011;8873;48.818;9.422;2022-12-18T06:17:34;49.37;;;16.33;;
17510;SDS011;8873;48.818;9.422;2022-12-18T06:20:05;47.83;;;16.60;;
17510;SDS011;8873;48.818;9.422;2022-12-18T06:22:36;58.10;;;16.07;;
17510;SDS011;8873;48.818;9.422;2022-12-18T06:25:08;57.83;;;16.27;;
17510;SDS011;8873;48.818;9.422;2022-12-18T06:27:38;46.63;;;16.43;;
17510;SDS011;8873;48.818;9.422;2022-12-18T06:30:09;55.30;;;15.83;;
17510;SDS011;8873;48.818;9.422;2022-12-18T06:32:43;77.43;;;19.57;;
17510;SDS011;8873;48.818;9.422;2022-12-18T06:35:14;66.30;;;19.17;;
17510;SDS011;8873;48.818;9.422;2022-12-18T06:37:44;66.73;;;19.60;;
17510;SDS011;8873;48.818;9.422;2022-12-18T06:40:14;56.57;;;16.43;;
17510;SDS011;8873;48.818;9.422;2022-12-18T06:42:45;56.10;;;17.43;;
17510;SDS011;8873;48.818;9.422;2022-12-18T06:45:18;56.07;;;17.07;;
17510;SDS011;8873;48.818;9.422;2022-12-18T06:47:48;52.00;;;17.70;;
17510;SDS011;8873;48.818;9.422;2022-12-18T06:50:21;44.00;;;16.00;;
17510;SDS011;8873;48.818;9.422;2022-12-18T06:52:51;54.23;;;16.60;;
17510;SDS011;8873;48.818;9.422;2022-12-18T06:55:19;64.33;;;18.30;;
17510;SDS011;8873;48.818;9.422;2022-12-18T06:57:47;60.60;;;19.13;;
17510;SDS011;8873;48.818;9.422;2022-12-18T07:00:16;65.17;;;16.80;;
17510;SDS011;8873;48.818;9.422;2022-12-18T07:02:48;56.73;;;17.97;;
17510;SDS011;8873;48.818;9.422;2022-12-18T07:05:29;63.90;;;18.87;;
17510;SDS011;8873;48.818;9.422;2022-12-18T07:08:17;57.60;;;18.23;;
17510;SDS011;8873;48.818;9.422;2022-12-18T07:10:47;59.23;;;17.87;;
17510;SDS011;8873;48.818;9.422;2022-12-18T07:13:21;63.07;;;17.10;;
17510;SDS011;8873;48.818;9.422;2022-12-18T07:15:50;49.47;;;17.97;;
17510;SDS011;8873;48.818;9.422;2022-12-18T07:18:18;52.83;;;18.30;;
17510;SDS011;8873;48.818;9.422;2022-12-18T07:20:49;62.87;;;17.93;;
17510;SDS011;8873;48.818;9.422;2022-12-18T07:23:17;56.93;;;17.13;;
17510;SDS011;8873;48.818;9.422;2022-12-18T07:25:53;52.00;;;16.30;;
17510;SDS011;8873;48.818;9.422;2022-12-18T07:28:21;57.77;;;18.17;;
17510;SDS011;8873;48.818;9.422;2022-12-18T07:30:51;54.17;;;17.23;;
17510;SDS011;8873;48.818;9.422;2022-12-18T07:33:22;57.90;;;17.33;;
17510;SDS011;8873;48.818;9.422;2022-12-18T07:35:49;55.20;;;18.40;;
17510;SDS011;8873;48.818;9.422;2022-12-18T07:38:17;60.57;;;18.33;;
17510;SDS011;8873;48.818;9.422;2022-12-18T07:40:45;64.03;;;19.90;;
17510;SDS011;8873;48.818;9.422;2022-12-18T07:43:13;55.67;;;16.83;;
17510;SDS011;8873;48.818;9.422;2022-12-18T07:45:41;60.27;;;18.30;;
17510;SDS011;8873;48.818;9.422;2022-12-18T07:48:10;64.83;;;19.90;;
17510;SDS011;8873;48.818;9.422;2022-12-18T07:50:38;56.17;;;19.87;;
17510;SDS011;8873;48.818;9.422;2022-12-18T07:53:09;63.90;;;19.17;;
17510;SDS011;8873;48.818;9.422;2022-12-18T07:55:36;63.60;;;20.10;;
17510;SDS011;8873;48.818;9.422;2022-12-18T07:58:27;68.80;;;18.27;;
17510;SDS011;8873;48.818;9.422;2022-12-18T08:01:01;64.43;;;18.63;;
17510;SDS011;8873;48.818;9.422;2022-12-18T08:03:33;57.93;;;17.77;;
17510;SDS011;8873;48.818;9.422;2022-12-18T08:06:27;64.97;;;19.37;;
17510;SDS011;8873;48.818;9.422;2022-12-18T08:08:59;68.93;;;19.77;;
17510;SDS011;8873;48.818;9.422;2022-12-18T08:11:26;59.10;;;20.20;;
17510;SDS011;8873;48.818;9.422;2022-12-18T08:13:55;66.83;;;20.20;;
17510;SDS011;8873;48.818;9.422;2022-12-18T08:16:25;73.43;;;20.80;;
17510;SDS011;8873;48.818;9.422;2022-12-18T08:19:07;68.47;;;21.50;;
17510;SDS011;8873;48.818;9.422;2022-12-18T08:21:37;85.10;;;25.37;;
17510;SDS011;8873;48.818;9.422;2022-12-18T08:24:09;84.07;;;25.40;;
17510;SDS011;8873;48.818;9.422;2022-12-18T08:26:36;81.50;;;23.73;;
17510;SDS011;8873;48.818;9.422;2022-12-18T08:29:31;75.27;;;23.33;;
17510;SDS011;8873;48.818;9.422;2022-12-18T08:32:00;72.17;;;22.50;;
17510;SDS011;8873;48.818;9.422;2022-12-18T08:34:36;77.03;;;22.93;;
17510;SDS011;8873;48.818;9.422;2022-12-18T08:37:04;68.77;;;21.23;;
17510;SDS011;8873;48.818;9.422;2022-12-18T08:39:35;69.67;;;22.53;;
17510;SDS011;8873;48.818;9.422;2022-12-18T08:42:04;71.10;;;21.47;;
17510;SDS011;8873;48.818;9.422;2022-12-18T08:44:50;82.20;;;23.47;;
17510;SDS011;8873;48.818;9.422;2022-12-18T08:47:18;74.07;;;22.90;;
17510;SDS011;8873;48.818;9.422;2022-12-18T08:50:01;74.77;;;23.43;;
17510;SDS011;8873;48.818;9.422;2022-12-18T08:52:34;78.57;;;21.50;;
17510;SDS011;8873;48.818;9.422;2022-12-18T08:55:15;82.73;;;23.33;;
17510;SDS011;8873;48.818;9.422;2022-12-18T08:57:56;70.70;;;22.20;;
17510;SDS011;8873;48.818;9.422;2022-12-18T09:00:26;76.90;;;23.20;;
17510;SDS011;8873;48.818;9.422;2022-12-18T09:03:03;76.10;;;22.67;;
17510;SDS011;8873;48.818;9.422;2022-12-18T09:05:32;67.73;;;22.77;;
17510;SDS011;8873;48.818;9.422;2022-12-18T09:08:06;73.07;;;22.77;;
17510;SDS011;8873;48.818;9.422;2022-12-18T09:10:40;70.80;;;24.07;;
17510;SDS011;8873;48.818;9.422;2022-12-18T09:13:09;72.07;;;23.57;;
17510;SDS011;8873;48.818;9.422;2022-12-18T09:15:39;69.37;;;23.73;;
17510;SDS011;8873;48.818;9.422;2022-12-18T09:18:08;74.93;;;23.87;;
17510;SDS011;8873;48.818;9.422;2022-12-18T09:20:38;73.03;;;23.63;;
17510;SDS011;8873;48.818;9.422;2022-12-18T09:23:12;71.90;;;23.20;;
17510;SDS011;8873;48.818;9.422;2022-12-18T09:25:40;68.33;;;21.67;;
17510;SDS011;8873;48.818;9.422;2022-12-18T09:28:11;76.03;;;22.77;;
17510;SDS011;8873;48.818;9.422;2022-12-18T09:30:43;77.30;;;22.67;;
17510;SDS011;8873;48.818;9.422;2022-12-18T09:33:10;72.83;;;23.97;;
17510;SDS011;8873;48.818;9.422;2022-12-18T09:35:53;74.90;;;21.73;;
17510;SDS011;8873;48.818;9.422;2022-12-18T09:38:21;71.67;;;23.80;;
17510;SDS011;8873;48.818;9.422;2022-12-18T09:40:55;68.80;;;22.23;;
17510;SDS011;8873;48.818;9.422;2022-12-18T09:43:34;68.63;;;20.43;;
17510;SDS011;8873;48.818;9.422;2022-12-18T09:46:04;64.87;;;21.50;;
17510;SDS011;8873;48.818;9.422;2022-12-18T09:48:38;72.90;;;23.83;;
17510;SDS011;8873;48.818;9.422;2022-12-18T09:51:13;65.07;;;20.93;;
17510;SDS011;8873;48.818;9.422;2022-12-18T09:53:44;71.67;;;23.13;;
17510;SDS011;8873;48.818;9.422;2022-12-18T09:56:17;67.83;;;20.67;;
17510;SDS011;8873;48.818;9.422;2022-12-18T09:58:49;75.97;;;23.10;;
17510;SDS011;8873;48.818;9.422;2022-12-18T10:01:23;73.97;;;22.57;;
17510;SDS011;8873;48.818;9.422;2022-12-18T10:04:07;69.67;;;22.07;;
17510;SDS011;8873;48.818;9.422;2022-12-18T10:06:38;71.07;;;21.70;;
17510;SDS011;8873;48.818;9.422;2022-12-18T10:09:08;70.47;;;21.00;;
17510;SDS011;8873;48.818;9.422;2022-12-18T10:11:43;62.83;;;20.60;;
17510;SDS011;8873;48.818;9.422;2022-12-18T10:14:22;67.07;;;20.77;;
17510;SDS011;8873;48.818;9.422;2022-12-18T10:16:56;63.10;;;21.23;;
17510;SDS011;8873;48.818;9.422;2022-12-18T10:19:32;56.13;;;19.00;;
17510;SDS011;8873;48.818;9.422;2022-12-18T10:22:21;67.27;;;19.23;;
17510;SDS011;8873;48.818;9.422;2022-12-18T10:24:52;64.80;;;19.67;;
17510;SDS011;8873;48.818;9.422;2022-12-18T10:27:23;65.67;;;19.10;;
17510;SDS011;8873;48.818;9.422;2022-12-18T10:29:55;57.63;;;18.03;;
17510;SDS011;8873;48.818;9.422;2022-12-18T10:32:26;56.73;;;18.30;;
17510;SDS011;8873;48.818;9.422;2022-12-18T10:34:55;62.80;;;18.87;;
17510;SDS011;8873;48.818;9.422;2022-12-18T10:37:28;56.93;;;19.03;;
17510;SDS011;8873;48.818;9.422;2022-12-18T10:40:08;63.90;;;19.33;;
17510;SDS011;8873;48.818;9.422;2022-12-18T10:42:36;50.13;;;17.47;;
17510;SDS011;8873;48.818;9.422;2022-12-18T10:45:05;49.63;;;17.50;;
17510;SDS011;8873;48.818;9.422;2022-12-18T10:47:35;54.00;;;17.63;;
17510;SDS011;8873;48.818;9.422;2022-12-18T10:50:04;53.73;;;18.13;;
17510;SDS011;8873;48.818;9.422;2022-12-18T10:52:36;60.37;;;18.27;;
17510;SDS011;8873;48.818;9.422;2022-12-18T10:55:13;61.53;;;17.43;;
17510;SDS011;8873;48.818;9.422;2022-12-18T10:57:43;48.43;;;16.57;;
17510;SDS011;8873;48.818;9.422;2022-12-18T11:02:56;52.03;;;17.43;;
17510;SDS011;8873;48.818;9.422;2022-12-18T11:05:29;47.30;;;16.57;;
17510;SDS011;8873;48.818;9.422;2022-12-18T11:07:58;52.37;;;17.10;;
17510;SDS011;8873;48.818;9.422;2022-12-18T11:10:28;50.47;;;16.70;;
17510;SDS011;8873;48.818;9.422;2022-12-18T11:13:08;52.63;;;16.97;;
17510;SDS011;8873;48.818;9.422;2022-12-18T11:15:36;48.07;;;17.03;;
17510;SDS011;8873;48.818;9.422;2022-12-18T11:18:04;47.23;;;16.40;;
17510;SDS011;8873;48.818;9.422;2022-12-18T11:20:32;51.50;;;16.20;;
17510;SDS011;8873;48.818;9.422;2022-12-18T11:23:05;46.60;;;15.70;;
17510;SDS011;8873;48.818;9.422;2022-12-18T11:25:37;63.77;;;20.13;;
17510;SDS011;8873;48.818;9.422;2022-12-18T11:28:24;58.17;;;18.50;;
17510;SDS011;8873;48.818;9.422;2022-12-18T11:31:08;62.27;;;20.33;;
17510;SDS011;8873;48.818;9.422;2022-12-18T11:33:37;46.73;;;17.07;;
17510;SDS011;8873;48.818;9.422;2022-12-18T11:36:25;47.13;;;16.30;;
17510;SDS011;8873;48.818;9.422;2022-12-18T11:39:05;50.33;;;17.43;;
17510;SDS011;8873;48.818;9.422;2022-12-18T11:41:52;62.10;;;18.20;;
17510;SDS011;8873;48.818;9.422;2022-12-18T11:44:51;47.97;;;17.00;;
17510;SDS011;8873;48.818;9.422;2022-12-18T11:47:24;48.87;;;15.70;;
17510;SDS011;8873;48.818;9.422;2022-12-18T11:49:52;46.10;;;16.27;;
17510;SDS011;8873;48.818;9.422;2022-12-18T11:52:21;49.30;;;15.80;;
17510;SDS011;8873;48.818;9.422;2022-12-18T11:54:52;40.70;;;16.50;;
17510;SDS011;8873;48.818;9.422;2022-12-18T11:57:27;44.90;;;16.70;;
17510;SDS011;8873;48.818;9.422;2022-12-18T12:00:01;47.77;;;16.40;;
17510;SDS011;8873;48.818;9.422;2022-12-18T12:02:36;51.40;;;16.53;;
17510;SDS011;8873;48.818;9.422;2022-12-18T12:05:18;47.03;;;15.93;;
17510;SDS011;8873;48.818;9.422;2022-12-18T12:07:50;43.63;;;15.63;;
17510;SDS011;8873;48.818;9.422;2022-12-18T12:10:29;44.50;;;16.40;;
17510;SDS011;8873;48.818;9.422;2022-12-18T12:13:07;44.93;;;15.63;;
17510;SDS011;8873;48.818;9.422;2022-12-18T12:15:39;43.43;;;16.07;;
17510;SDS011;8873;48.818;9.422;2022-12-18T12:18:14;42.93;;;15.67;;
17510;SDS011;8873;48.818;9.422;2022-12-18T12:20:49;43.73;;;15.90;;
17510;SDS011;8873;48.818;9.422;2022-12-18T12:23:20;46.00;;;17.47;;
17510;SDS011;8873;48.818;9.422;2022-12-18T12:25:55;43.57;;;17.20;;
17510;SDS011;8873;48.818;9.422;2022-12-18T12:28:28;43.27;;;16.27;;
17510;SDS011;8873;48.818;9.422;2022-12-18T12:31:03;43.60;;;15.63;;
17510;SDS011;8873;48.818;9.422;2022-12-18T12:33:36;43.03;;;16.03;;
17510;SDS011;8873;48.818;9.422;2022-12-18T12:36:08;46.50;;;16.47;;
17510;SDS011;8873;48.818;9.422;2022-12-18T12:38:40;46.70;;;16.00;;
17510;SDS011;8873;48.818;9.422;2022-12-18T12:41:16;47.67;;;17.30;;
17510;SDS011;8873;48.818;9.422;2022-12-18T12:44:03;40.23;;;15.00;;
17510;SDS011;8873;48.818;9.422;2022-12-18T12:46:34;43.87;;;15.93;;
17510;SDS011;8873;48.818;9.422;2022-12-18T12:49:08;48.17;;;16.63;;
17510;SDS011;8873;48.818;9.422;2022-12-18T12:51:39;45.97;;;16.33;;
17510;SDS011;8873;48.818;9.422;2022-12-18T12:54:11;43.47;;;16.47;;
17510;SDS011;8873;48.818;9.422;2022-12-18T12:56:42;43.70;;;15.53;;
17510;SDS011;8873;48.818;9.422;2022-12-18T12:59:13;49.90;;;16.60;;
17510;SDS011;8873;48.818;9.422;2022-12-18T13:01:48;41.33;;;16.07;;
17510;SDS011;8873;48.818;9.422;2022-12-18T13:04:26;46.80;;;16.67;;
17510;SDS011;8873;48.818;9.422;2022-12-18T13:07:38;50.80;;;16.53;;
17510;SDS011;8873;48.818;9.422;2022-12-18T13:10:27;46.50;;;17.50;;
17510;SDS011;8873;48.818;9.422;2022-12-18T13:13:07;47.83;;;17.73;;
17510;SDS011;8873;48.818;9.422;2022-12-18T13:16:03;45.30;;;15.47;;
17510;SDS011;8873;48.818;9.422;2022-12-18T13:18:38;53.60;;;17.67;;
17510;SDS011;8873;48.818;9.422;2022-12-18T13:21:15;45.63;;;17.30;;
17510;SDS011;8873;48.818;9.422;2022-12-18T13:23:47;56.03;;;18.13;;
17510;SDS011;8873;48.818;9.422;2022-12-18T13:29:20;42.93;;;16.37;;
17510;SDS011;8873;48.818;9.422;2022-12-18T13:32:02;42.73;;;14.77;;
17510;SDS011;8873;48.818;9.422;2022-12-18T13:34:37;43.50;;;15.10;;
17510;SDS011;8873;48.818;9.422;2022-12-18T13:39:51;51.53;;;17.87;;
17510;SDS011;8873;48.818;9.422;2022-12-18T13:45:11;50.70;;;18.90;;
17510;SDS011;8873;48.818;9.422;2022-12-18T13:47:59;49.67;;;16.57;;
17510;SDS011;8873;48.818;9.422;2022-12-18T13:50:26;54.03;;;17.37;;
17510;SDS011;8873;48.818;9.422;2022-12-18T13:53:01;47.10;;;16.27;;
17510;SDS011;8873;48.818;9.422;2022-12-18T13:55:31;46.50;;;16.57;;
17510;SDS011;8873;48.818;9.422;2022-12-18T13:58:03;48.63;;;17.77;;
17510;SDS011;8873;48.818;9.422;2022-12-18T14:00:32;48.53;;;18.03;;
17510;SDS011;8873;48.818;9.422;2022-12-18T14:03:00;53.67;;;18.07;;
17510;SDS011;8873;48.818;9.422;2022-12-18T14:05:28;49.60;;;16.67;;
17510;SDS011;8873;48.818;9.422;2022-12-18T14:07:59;44.60;;;16.10;;
17510;SDS011;8873;48.818;9.422;2022-12-18T14:10:28;47.23;;;17.50;;
17510;SDS011;8873;48.818;9.422;2022-12-18T14:13:15;50.33;;;16.77;;
17510;SDS011;8873;48.818;9.422;2022-12-18T14:15:47;48.17;;;17.10;;
17510;SDS011;8873;48.818;9.422;2022-12-18T14:18:18;50.53;;;17.07;;
17510;SDS011;8873;48.818;9.422;2022-12-18T14:20:47;44.13;;;16.50;;
17510;SDS011;8873;48.818;9.422;2022-12-18T14:23:25;52.33;;;17.33;;
17510;SDS011;8873;48.818;9.422;2022-12-18T14:25:54;49.33;;;16.50;;
17510;SDS011;8873;48.818;9.422;2022-12-18T14:28:29;38.60;;;15.97;;
17510;SDS011;8873;48.818;9.422;2022-12-18T14:30:58;48.77;;;16.53;;
17510;SDS011;8873;48.818;9.422;2022-12-18T14:33:27;50.47;;;16.83;;
17510;SDS011;8873;48.818;9.422;2022-12-18T14:35:56;50.83;;;16.37;;
17510;SDS011;8873;48.818;9.422;2022-12-18T14:38:26;44.87;;;16.40;;
17510;SDS011;8873;48.818;9.422;2022-12-18T14:40:55;59.30;;;17.77;;
17510;SDS011;8873;48.818;9.422;2022-12-18T14:43:26;44.73;;;16.20;;
17510;SDS011;8873;48.818;9.422;2022-12-18T14:45:54;49.20;;;16.57;;
17510;SDS011;8873;48.818;9.422;2022-12-18T14:48:30;46.77;;;16.93;;
17510;SDS011;8873;48.818;9.422;2022-12-18T14:51:00;43.37;;;14.93;;
17510;SDS011;8873;48.818;9.422;2022-12-18T14:53:32;40.87;;;15.43;;
17510;SDS011;8873;48.818;9.422;2022-12-18T14:56:01;43.33;;;16.40;;
17510;SDS011;8873;48.818;9.422;2022-12-18T14:58:29;44.90;;;16.37;;
17510;SDS011;8873;48.818;9.422;2022-12-18T15:00:56;50.77;;;16.33;;
17510;SDS011;8873;48.818;9.422;2022-12-18T15:03:26;52.33;;;16.53;;
17510;SDS011;8873;48.818;9.422;2022-12-18T15:05:53;49.77;;;15.97;;
17510;SDS011;8873;48.818;9.422;2022-12-18T15:08:28;49.27;;;15.33;;
17510;SDS011;8873;48.818;9.422;2022-12-18T15:10:56;50.27;;;16.80;;
17510;SDS011;8873;48.818;9.422;2022-12-18T15:13:23;47.67;;;16.67;;
17510;SDS011;8873;48.818;9.422;2022-12-18T15:15:52;50.40;;;16.63;;